Terminal Aerodrome Forecast
Issued by NWS Louisville, KY

Home | Current Version | Previous Version | Text Only | Print | Product List | Glossary On
Versions: 1 2 3 4 5 6 7 8 9 10 11 12 13
380
FTUS43 KLMK 032323
TAFBWG
TAF
KBWG 032323Z 0400/0424 30006KT P6SM BKN070
     FM040200 VRB04KT P6SM SCT070
     FM041500 24011G17KT P6SM VCSH BKN025
     FM041900 29013G20KT P6SM VCSH SCT020 BKN030=

USA.gov is the U.S. government's official web portal to all federal, state and local government web resources and services.